sensor_id;sensor_type;location;lat;lon;timestamp;pressure;altitude;pressure_sealevel;temperature;humidity
75543;BME280;64129;53.508;10.476;2023-04-08T00:00:16;101867.38;;;6.28;82.14
75543;BME280;64129;53.508;10.476;2023-04-08T00:02:42;101871.75;;;6.26;83.33
75543;BME280;64129;53.508;10.476;2023-04-08T00:05:09;101874.28;;;6.18;82.90
75543;BME280;64129;53.508;10.476;2023-04-08T00:07:36;101875.34;;;6.33;83.39
75543;BME280;64129;53.508;10.476;2023-04-08T00:10:03;101874.97;;;6.02;83.73
75543;BME280;64129;53.508;10.476;2023-04-08T00:12:30;101877.97;;;6.31;83.38
75543;BME280;64129;53.508;10.476;2023-04-08T00:14:56;101879.75;;;6.32;82.80
75543;BME280;64129;53.508;10.476;2023-04-08T00:17:23;101865.50;;;6.21;83.57
75543;BME280;64129;53.508;10.476;2023-04-08T00:19:50;101877.78;;;6.19;83.20
75543;BME280;64129;53.508;10.476;2023-04-08T00:22:17;101872.63;;;6.27;83.55
75543;BME280;64129;53.508;10.476;2023-04-08T00:24:43;101872.63;;;6.25;83.76
75543;BME280;64129;53.508;10.476;2023-04-08T00:27:10;101869.28;;;6.40;82.84
75543;BME280;64129;53.508;10.476;2023-04-08T00:29:36;101870.69;;;6.12;83.89
75543;BME280;64129;53.508;10.476;2023-04-08T00:32:03;101874.44;;;6.29;83.59
75543;BME280;64129;53.508;10.476;2023-04-08T00:34:30;101873.41;;;6.19;83.91
75543;BME280;64129;53.508;10.476;2023-04-08T00:36:57;101869.16;;;6.29;83.24
75543;BME280;64129;53.508;10.476;2023-04-08T00:39:23;101878.06;;;6.40;82.48
75543;BME280;64129;53.508;10.476;2023-04-08T00:41:50;101860.34;;;6.27;82.98
75543;BME280;64129;53.508;10.476;2023-04-08T00:44:19;101871.81;;;6.31;83.14
75543;BME280;64129;53.508;10.476;2023-04-08T00:46:46;101870.97;;;6.33;83.77
75543;BME280;64129;53.508;10.476;2023-04-08T00:49:14;101867.09;;;6.07;83.90
75543;BME280;64129;53.508;10.476;2023-04-08T00:51:40;101873.34;;;6.15;83.98
75543;BME280;64129;53.508;10.476;2023-04-08T00:54:07;101879.53;;;6.17;84.32
75543;BME280;64129;53.508;10.476;2023-04-08T00:56:34;101876.09;;;6.24;84.18
75543;BME280;64129;53.508;10.476;2023-04-08T00:59:01;101872.53;;;6.19;84.20
75543;BME280;64129;53.508;10.476;2023-04-08T01:01:33;101862.97;;;6.27;83.86
75543;BME280;64129;53.508;10.476;2023-04-08T01:06:48;101875.97;;;6.13;84.41
75543;BME280;64129;53.508;10.476;2023-04-08T01:09:18;101876.09;;;6.22;84.31
75543;BME280;64129;53.508;10.476;2023-04-08T01:11:49;101870.81;;;6.24;84.31
75543;BME280;64129;53.508;10.476;2023-04-08T01:14:22;101867.44;;;6.33;84.30
75543;BME280;64129;53.508;10.476;2023-04-08T01:16:50;101869.81;;;6.13;84.73
75543;BME280;64129;53.508;10.476;2023-04-08T01:19:22;101871.53;;;6.11;84.92
75543;BME280;64129;53.508;10.476;2023-04-08T01:21:53;101867.41;;;6.30;84.36
75543;BME280;64129;53.508;10.476;2023-04-08T01:24:30;101867.16;;;6.11;84.95
75543;BME280;64129;53.508;10.476;2023-04-08T01:26:59;101865.53;;;6.24;84.45
75543;BME280;64129;53.508;10.476;2023-04-08T01:29:28;101866.25;;;6.09;85.45
75543;BME280;64129;53.508;10.476;2023-04-08T01:31:56;101858.38;;;6.12;84.42
75543;BME280;64129;53.508;10.476;2023-04-08T01:34:26;101859.28;;;6.14;84.26
75543;BME280;64129;53.508;10.476;2023-04-08T01:36:55;101862.69;;;6.06;84.58
75543;BME280;64129;53.508;10.476;2023-04-08T01:39:24;101857.56;;;6.18;84.12
75543;BME280;64129;53.508;10.476;2023-04-08T01:41:52;101857.53;;;6.15;84.71
75543;BME280;64129;53.508;10.476;2023-04-08T01:44:19;101858.44;;;6.17;84.34
75543;BME280;64129;53.508;10.476;2023-04-08T01:46:47;101854.72;;;6.01;85.42
75543;BME280;64129;53.508;10.476;2023-04-08T01:49:16;101856.66;;;6.16;84.18
75543;BME280;64129;53.508;10.476;2023-04-08T01:51:44;101855.66;;;6.05;84.32
75543;BME280;64129;53.508;10.476;2023-04-08T01:54:11;101856.38;;;5.91;84.75
75543;BME280;64129;53.508;10.476;2023-04-08T01:56:40;101849.41;;;5.98;84.96
75543;BME280;64129;53.508;10.476;2023-04-08T01:59:11;101847.06;;;6.22;83.40
75543;BME280;64129;53.508;10.476;2023-04-08T02:01:40;101847.22;;;6.33;82.72
75543;BME280;64129;53.508;10.476;2023-04-08T02:04:08;101856.09;;;6.40;82.60
75543;BME280;64129;53.508;10.476;2023-04-08T02:06:35;101858.69;;;6.38;82.81
75543;BME280;64129;53.508;10.476;2023-04-08T02:09:03;101859.44;;;6.25;83.30
75543;BME280;64129;53.508;10.476;2023-04-08T02:11:31;101854.25;;;6.33;82.72
75543;BME280;64129;53.508;10.476;2023-04-08T02:13:57;101862.31;;;6.46;82.69
75543;BME280;64129;53.508;10.476;2023-04-08T02:17:03;101852.47;;;6.30;83.47
75543;BME280;64129;53.508;10.476;2023-04-08T02:21:57;101860.44;;;6.36;83.05
75543;BME280;64129;53.508;10.476;2023-04-08T02:24:27;101853.22;;;6.21;83.49
75543;BME280;64129;53.508;10.476;2023-04-08T02:26:56;101856.66;;;6.16;83.93
75543;BME280;64129;53.508;10.476;2023-04-08T02:29:25;101849.59;;;6.13;83.48
75543;BME280;64129;53.508;10.476;2023-04-08T02:31:53;101847.84;;;6.14;83.43
75543;BME280;64129;53.508;10.476;2023-04-08T02:34:21;101854.94;;;6.18;83.71
75543;BME280;64129;53.508;10.476;2023-04-08T02:36:47;101861.88;;;6.10;83.97
75543;BME280;64129;53.508;10.476;2023-04-08T02:39:16;101863.78;;;6.23;83.50
75543;BME280;64129;53.508;10.476;2023-04-08T02:41:46;101863.44;;;5.96;84.16
75543;BME280;64129;53.508;10.476;2023-04-08T02:44:13;101858.50;;;6.23;83.30
75543;BME280;64129;53.508;10.476;2023-04-08T02:46:39;101862.97;;;6.25;83.30
75543;BME280;64129;53.508;10.476;2023-04-08T02:49:06;101876.91;;;6.17;83.41
75543;BME280;64129;53.508;10.476;2023-04-08T02:51:32;101873.13;;;5.97;83.74
75543;BME280;64129;53.508;10.476;2023-04-08T02:53:59;101864.56;;;6.14;83.61
75543;BME280;64129;53.508;10.476;2023-04-08T02:56:26;101876.03;;;6.18;83.59
75543;BME280;64129;53.508;10.476;2023-04-08T02:58:52;101878.66;;;6.18;83.18
75543;BME280;64129;53.508;10.476;2023-04-08T03:01:19;101871.63;;;6.17;82.78
75543;BME280;64129;53.508;10.476;2023-04-08T03:03:45;101877.31;;;5.85;84.27
75543;BME280;64129;53.508;10.476;2023-04-08T03:06:12;101872.25;;;5.98;84.13
75543;BME280;64129;53.508;10.476;2023-04-08T03:08:38;101879.31;;;5.99;84.32
75543;BME280;64129;53.508;10.476;2023-04-08T03:11:05;101880.22;;;6.01;84.17
75543;BME280;64129;53.508;10.476;2023-04-08T03:13:32;101877.31;;;5.85;84.88
75543;BME280;64129;53.508;10.476;2023-04-08T03:15:59;101884.69;;;6.06;84.39
75543;BME280;64129;53.508;10.476;2023-04-08T03:18:26;101878.69;;;6.19;83.68
75543;BME280;64129;53.508;10.476;2023-04-08T03:20:52;101880.84;;;5.87;84.50
75543;BME280;64129;53.508;10.476;2023-04-08T03:23:19;101879.22;;;5.91;84.76
75543;BME280;64129;53.508;10.476;2023-04-08T03:25:46;101883.78;;;6.04;84.27
75543;BME280;64129;53.508;10.476;2023-04-08T03:28:12;101882.72;;;5.90;85.01
75543;BME280;64129;53.508;10.476;2023-04-08T03:30:39;101890.13;;;6.20;84.11
75543;BME280;64129;53.508;10.476;2023-04-08T03:33:05;101891.81;;;6.15;83.72
75543;BME280;64129;53.508;10.476;2023-04-08T03:35:33;101893.47;;;6.07;84.06
75543;BME280;64129;53.508;10.476;2023-04-08T03:38:00;101883.47;;;5.86;84.49
75543;BME280;64129;53.508;10.476;2023-04-08T03:40:26;101889.00;;;6.00;84.82
75543;BME280;64129;53.508;10.476;2023-04-08T03:42:53;101900.25;;;5.89;85.24
75543;BME280;64129;53.508;10.476;2023-04-08T03:45:19;101891.75;;;6.09;84.65
75543;BME280;64129;53.508;10.476;2023-04-08T03:47:46;101896.81;;;5.93;84.69
75543;BME280;64129;53.508;10.476;2023-04-08T03:50:13;101898.72;;;6.04;84.78
75543;BME280;64129;53.508;10.476;2023-04-08T03:52:39;101897.88;;;6.06;84.59
75543;BME280;64129;53.508;10.476;2023-04-08T03:55:06;101898.56;;;5.93;84.63
75543;BME280;64129;53.508;10.476;2023-04-08T03:57:33;101900.47;;;6.03;84.40
75543;BME280;64129;53.508;10.476;2023-04-08T03:59:59;101906.56;;;6.01;84.51
75543;BME280;64129;53.508;10.476;2023-04-08T04:02:26;101902.22;;;6.03;83.82
75543;BME280;64129;53.508;10.476;2023-04-08T04:04:53;101909.22;;;6.01;84.42
75543;BME280;64129;53.508;10.476;2023-04-08T04:07:19;101901.72;;;5.72;85.65
75543;BME280;64129;53.508;10.476;2023-04-08T04:09:46;101910.00;;;5.93;85.42
75543;BME280;64129;53.508;10.476;2023-04-08T04:12:12;101906.72;;;6.13;84.58
75543;BME280;64129;53.508;10.476;2023-04-08T04:14:39;101913.53;;;5.96;85.27
75543;BME280;64129;53.508;10.476;2023-04-08T04:17:06;101918.84;;;5.99;84.76
75543;BME280;64129;53.508;10.476;2023-04-08T04:19:32;101926.78;;;5.99;84.68
75543;BME280;64129;53.508;10.476;2023-04-08T04:21:59;101923.91;;;5.88;85.38
75543;BME280;64129;53.508;10.476;2023-04-08T04:24:25;101933.50;;;5.83;85.33
75543;BME280;64129;53.508;10.476;2023-04-08T04:26:52;101927.69;;;6.01;84.72
75543;BME280;64129;53.508;10.476;2023-04-08T04:29:18;101934.81;;;6.08;84.65
75543;BME280;64129;53.508;10.476;2023-04-08T04:31:45;101929.50;;;6.06;84.96
75543;BME280;64129;53.508;10.476;2023-04-08T04:34:11;101928.53;;;6.00;84.65
75543;BME280;64129;53.508;10.476;2023-04-08T04:36:38;101937.88;;;5.81;85.26
75543;BME280;64129;53.508;10.476;2023-04-08T04:39:05;101928.56;;;6.03;84.92
75543;BME280;64129;53.508;10.476;2023-04-08T04:41:31;101940.72;;;5.91;84.91
75543;BME280;64129;53.508;10.476;2023-04-08T04:43:58;101937.75;;;5.72;85.90
75543;BME280;64129;53.508;10.476;2023-04-08T04:46:25;101939.78;;;5.89;85.29
75543;BME280;64129;53.508;10.476;2023-04-08T04:48:51;101935.66;;;6.07;84.67
75543;BME280;64129;53.508;10.476;2023-04-08T04:51:18;101939.16;;;6.06;84.02
75543;BME280;64129;53.508;10.476;2023-04-08T04:53:44;101945.25;;;6.00;84.17
75543;BME280;64129;53.508;10.476;2023-04-08T04:56:11;101946.00;;;5.91;84.29
75543;BME280;64129;53.508;10.476;2023-04-08T04:58:37;101944.53;;;6.12;83.77
75543;BME280;64129;53.508;10.476;2023-04-08T05:01:04;101957.56;;;6.01;84.60
75543;BME280;64129;53.508;10.476;2023-04-08T05:03:31;101959.41;;;6.07;84.30
75543;BME280;64129;53.508;10.476;2023-04-08T05:05:58;101965.31;;;5.90;85.00
75543;BME280;64129;53.508;10.476;2023-04-08T05:08:24;101954.91;;;6.00;84.67
75543;BME280;64129;53.508;10.476;2023-04-08T05:10:52;101963.88;;;6.12;83.98
75543;BME280;64129;53.508;10.476;2023-04-08T05:13:21;101962.03;;;6.07;83.54
75543;BME280;64129;53.508;10.476;2023-04-08T05:15:47;101958.16;;;5.86;83.99
75543;BME280;64129;53.508;10.476;2023-04-08T05:18:14;101951.78;;;5.71;84.67
75543;BME280;64129;53.508;10.476;2023-04-08T05:20:41;101966.63;;;5.64;84.88
75543;BME280;64129;53.508;10.476;2023-04-08T05:23:08;101971.16;;;5.73;84.83
75543;BME280;64129;53.508;10.476;2023-04-08T05:25:34;101971.78;;;5.58;84.71
75543;BME280;64129;53.508;10.476;2023-04-08T05:28:01;101975.47;;;5.69;85.26
75543;BME280;64129;53.508;10.476;2023-04-08T05:30:28;101981.19;;;5.93;83.98
75543;BME280;64129;53.508;10.476;2023-04-08T05:32:55;101981.81;;;5.82;84.36
75543;BME280;64129;53.508;10.476;2023-04-08T05:35:23;101976.03;;;6.03;83.47
75543;BME280;64129;53.508;10.476;2023-04-08T05:37:49;101974.25;;;6.00;83.20
75543;BME280;64129;53.508;10.476;2023-04-08T05:40:16;101983.03;;;6.01;84.06
75543;BME280;64129;53.508;10.476;2023-04-08T05:42:43;101979.34;;;5.89;83.75
75543;BME280;64129;53.508;10.476;2023-04-08T05:45:09;101978.38;;;5.86;84.57
75543;BME280;64129;53.508;10.476;2023-04-08T05:47:36;101983.00;;;5.98;84.16
75543;BME280;64129;53.508;10.476;2023-04-08T05:50:03;101986.63;;;6.06;83.77
75543;BME280;64129;53.508;10.476;2023-04-08T05:52:30;101995.50;;;6.11;83.79
75543;BME280;64129;53.508;10.476;2023-04-08T05:54:56;101997.28;;;6.12;84.22
75543;BME280;64129;53.508;10.476;2023-04-08T05:57:23;102005.34;;;6.24;83.32
75543;BME280;64129;53.508;10.476;2023-04-08T05:59:49;102004.63;;;6.33;83.19
75543;BME280;64129;53.508;10.476;2023-04-08T06:02:16;102015.00;;;6.22;83.39
75543;BME280;64129;53.508;10.476;2023-04-08T06:04:42;102011.44;;;6.20;83.51
75543;BME280;64129;53.508;10.476;2023-04-08T06:07:09;102011.44;;;6.20;83.65
75543;BME280;64129;53.508;10.476;2023-04-08T06:09:36;102018.63;;;6.27;83.15
75543;BME280;64129;53.508;10.476;2023-04-08T06:12:03;102004.66;;;6.34;83.65
75543;BME280;64129;53.508;10.476;2023-04-08T06:14:30;102017.97;;;6.43;83.15
75543;BME280;64129;53.508;10.476;2023-04-08T06:16:56;102011.72;;;6.37;83.22
75543;BME280;64129;53.508;10.476;2023-04-08T06:19:23;102015.16;;;6.31;83.89
75543;BME280;64129;53.508;10.476;2023-04-08T06:21:50;102013.38;;;6.30;83.42
75543;BME280;64129;53.508;10.476;2023-04-08T06:24:16;102010.06;;;6.45;83.76
75543;BME280;64129;53.508;10.476;2023-04-08T06:26:43;102017.34;;;6.63;83.35
75543;BME280;64129;53.508;10.476;2023-04-08T06:29:10;102022.47;;;6.53;82.77
75543;BME280;64129;53.508;10.476;2023-04-08T06:31:36;102021.53;;;6.48;82.93
75543;BME280;64129;53.508;10.476;2023-04-08T06:34:03;102015.97;;;9.81;74.95
75543;BME280;64129;53.508;10.476;2023-04-08T06:36:29;102013.31;;;9.84;72.33
75543;BME280;64129;53.508;10.476;2023-04-08T06:38:56;102015.97;;;9.56;72.17
75543;BME280;64129;53.508;10.476;2023-04-08T06:41:23;102018.63;;;9.90;68.47
75543;BME280;64129;53.508;10.476;2023-04-08T06:43:50;102021.25;;;10.02;67.34
75543;BME280;64129;53.508;10.476;2023-04-08T06:46:16;102022.09;;;9.32;70.84
75543;BME280;64129;53.508;10.476;2023-04-08T06:48:43;102015.97;;;9.68;68.02
75543;BME280;64129;53.508;10.476;2023-04-08T06:51:09;102024.53;;;11.08;64.75
75543;BME280;64129;53.508;10.476;2023-04-08T06:53:36;102035.41;;;10.35;65.78
75543;BME280;64129;53.508;10.476;2023-04-08T06:56:03;102038.97;;;10.15;66.00
75543;BME280;64129;53.508;10.476;2023-04-08T06:58:30;102038.28;;;11.86;61.86
75543;BME280;64129;53.508;10.476;2023-04-08T07:00:58;102038.81;;;9.02;69.55
75543;BME280;64129;53.508;10.476;2023-04-08T07:03:25;102038.38;;;8.29;73.58
75543;BME280;64129;53.508;10.476;2023-04-08T07:05:52;102043.38;;;7.91;75.39
75543;BME280;64129;53.508;10.476;2023-04-08T07:08:18;102046.50;;;7.46;77.04
75543;BME280;64129;53.508;10.476;2023-04-08T07:10:45;102041.88;;;7.27;78.32
75543;BME280;64129;53.508;10.476;2023-04-08T07:13:11;102044.38;;;7.14;78.88
75543;BME280;64129;53.508;10.476;2023-04-08T07:15:38;102043.78;;;6.66;80.46
75543;BME280;64129;53.508;10.476;2023-04-08T07:18:06;102053.69;;;7.62;77.72
75543;BME280;64129;53.508;10.476;2023-04-08T07:20:33;102053.06;;;7.03;79.32
75543;BME280;64129;53.508;10.476;2023-04-08T07:23:03;102058.00;;;6.77;80.84
75543;BME280;64129;53.508;10.476;2023-04-08T07:25:32;102062.53;;;6.87;80.89
75543;BME280;64129;53.508;10.476;2023-04-08T07:28:00;102069.19;;;6.59;81.75
75543;BME280;64129;53.508;10.476;2023-04-08T07:30:26;102064.94;;;6.69;81.49
75543;BME280;64129;53.508;10.476;2023-04-08T07:32:53;102072.53;;;6.46;82.56
75543;BME280;64129;53.508;10.476;2023-04-08T07:35:21;102071.09;;;6.68;81.43
75543;BME280;64129;53.508;10.476;2023-04-08T07:37:51;102072.13;;;6.79;81.63
75543;BME280;64129;53.508;10.476;2023-04-08T07:40:18;102081.34;;;6.48;82.45
75543;BME280;64129;53.508;10.476;2023-04-08T07:42:45;102079.00;;;6.68;82.35
75543;BME280;64129;53.508;10.476;2023-04-08T07:45:11;102089.53;;;6.65;82.46
75543;BME280;64129;53.508;10.476;2023-04-08T07:47:40;102086.00;;;6.64;82.35
75543;BME280;64129;53.508;10.476;2023-04-08T07:50:07;102094.19;;;6.85;81.98
75543;BME280;64129;53.508;10.476;2023-04-08T07:52:34;102091.47;;;6.78;82.14
75543;BME280;64129;53.508;10.476;2023-04-08T07:55:01;102092.84;;;6.53;83.26
75543;BME280;64129;53.508;10.476;2023-04-08T07:57:27;102087.50;;;6.48;83.28
75543;BME280;64129;53.508;10.476;2023-04-08T07:59:54;102097.50;;;6.69;82.62
75543;BME280;64129;53.508;10.476;2023-04-08T08:02:21;102097.59;;;6.77;82.34
75543;BME280;64129;53.508;10.476;2023-04-08T08:04:50;102101.84;;;6.66;83.48
75543;BME280;64129;53.508;10.476;2023-04-08T08:07:16;102103.78;;;6.79;82.98
75543;BME280;64129;53.508;10.476;2023-04-08T08:09:43;102101.03;;;6.68;83.31
75543;BME280;64129;53.508;10.476;2023-04-08T08:12:10;102099.00;;;6.52;83.42
75543;BME280;64129;53.508;10.476;2023-04-08T08:14:37;102104.41;;;6.60;83.20
75543;BME280;64129;53.508;10.476;2023-04-08T08:17:03;102108.66;;;6.51;83.78
75543;BME280;64129;53.508;10.476;2023-04-08T08:19:30;102100.78;;;6.54;83.29
75543;BME280;64129;53.508;10.476;2023-04-08T08:21:56;102102.69;;;6.62;83.74
75543;BME280;64129;53.508;10.476;2023-04-08T08:24:23;102105.78;;;6.95;82.77
75543;BME280;64129;53.508;10.476;2023-04-08T08:26:51;102109.34;;;6.97;81.93
75543;BME280;64129;53.508;10.476;2023-04-08T08:29:17;102108.09;;;6.72;83.07
75543;BME280;64129;53.508;10.476;2023-04-08T08:31:44;102117.03;;;6.82;82.36
75543;BME280;64129;53.508;10.476;2023-04-08T08:34:10;102116.28;;;6.91;83.14
75543;BME280;64129;53.508;10.476;2023-04-08T08:36:37;102122.91;;;6.60;82.94
75543;BME280;64129;53.508;10.476;2023-04-08T08:39:04;102121.44;;;6.83;83.07
75543;BME280;64129;53.508;10.476;2023-04-08T08:41:33;102131.97;;;6.80;82.56
75543;BME280;64129;53.508;10.476;2023-04-08T08:44:06;102128.19;;;6.60;83.11
75543;BME280;64129;53.508;10.476;2023-04-08T08:46:33;102123.03;;;6.69;82.31
75543;BME280;64129;53.508;10.476;2023-04-08T08:49:00;102128.34;;;6.72;82.37
75543;BME280;64129;53.508;10.476;2023-04-08T08:51:27;102128.44;;;6.78;82.28
75543;BME280;64129;53.508;10.476;2023-04-08T08:53:55;102134.41;;;6.65;82.59
75543;BME280;64129;53.508;10.476;2023-04-08T08:56:22;102134.56;;;6.75;81.96
75543;BME280;64129;53.508;10.476;2023-04-08T08:58:48;102139.09;;;6.87;82.01
75543;BME280;64129;53.508;10.476;2023-04-08T09:01:34;102140.22;;;7.03;81.15
75543;BME280;64129;53.508;10.476;2023-04-08T09:06:32;102142.56;;;6.83;82.00
75543;BME280;64129;53.508;10.476;2023-04-08T09:08:59;102143.69;;;6.97;81.40
75543;BME280;64129;53.508;10.476;2023-04-08T09:11:25;102149.81;;;6.95;80.84
75543;BME280;64129;53.508;10.476;2023-04-08T09:13:52;102155.84;;;6.87;81.43
75543;BME280;64129;53.508;10.476;2023-04-08T09:16:18;102165.06;;;7.17;80.74
75543;BME280;64129;53.508;10.476;2023-04-08T09:18:46;102167.50;;;7.00;81.09
75543;BME280;64129;53.508;10.476;2023-04-08T09:21:16;102158.66;;;6.98;81.06
75543;BME280;64129;53.508;10.476;2023-04-08T09:23:48;102156.31;;;7.23;80.64
75543;BME280;64129;53.508;10.476;2023-04-08T09:26:19;102157.72;;;6.95;80.88
75543;BME280;64129;53.508;10.476;2023-04-08T09:29:01;102166.69;;;7.07;81.10
75543;BME280;64129;53.508;10.476;2023-04-08T09:31:36;102158.69;;;7.01;81.00
75543;BME280;64129;53.508;10.476;2023-04-08T09:34:16;102160.31;;;6.93;81.94
75543;BME280;64129;53.508;10.476;2023-04-08T09:36:47;102169.25;;;7.01;81.95
75543;BME280;64129;53.508;10.476;2023-04-08T09:39:14;102172.72;;;6.97;81.50
75543;BME280;64129;53.508;10.476;2023-04-08T09:41:42;102167.56;;;7.06;81.01
75543;BME280;64129;53.508;10.476;2023-04-08T09:44:10;102167.69;;;7.15;80.61
75543;BME280;64129;53.508;10.476;2023-04-08T09:46:55;102168.53;;;7.13;81.31
75543;BME280;64129;53.508;10.476;2023-04-08T09:49:32;102170.34;;;7.17;80.87
75543;BME280;64129;53.508;10.476;2023-04-08T09:52:20;102171.22;;;7.17;80.92
75543;BME280;64129;53.508;10.476;2023-04-08T09:55:02;102169.44;;;7.15;80.94
75543;BME280;64129;53.508;10.476;2023-04-08T09:57:40;102174.66;;;7.10;80.93
75543;BME280;64129;53.508;10.476;2023-04-08T10:00:13;102170.97;;;6.96;81.53
75543;BME280;64129;53.508;10.476;2023-04-08T10:02:54;102179.19;;;7.19;82.08
75543;BME280;64129;53.508;10.476;2023-04-08T10:05:23;102171.75;;;7.60;81.14
75543;BME280;64129;53.508;10.476;2023-04-08T10:07:51;102172.50;;;7.48;81.51
75543;BME280;64129;53.508;10.476;2023-04-08T10:10:18;102172.03;;;7.85;80.67
75543;BME280;64129;53.508;10.476;2023-04-08T10:12:45;102183.16;;;7.55;79.86
75543;BME280;64129;53.508;10.476;2023-04-08T10:15:21;102187.28;;;7.30;80.54
75543;BME280;64129;53.508;10.476;2023-04-08T10:17:52;102181.72;;;7.11;81.73
75543;BME280;64129;53.508;10.476;2023-04-08T10:23:09;102181.47;;;7.61;80.21
75543;BME280;64129;53.508;10.476;2023-04-08T10:25:37;102179.72;;;7.62;79.50
75543;BME280;64129;53.508;10.476;2023-04-08T10:33:09;102181.81;;;7.17;81.69
75543;BME280;64129;53.508;10.476;2023-04-08T10:35:47;102180.28;;;7.35;81.40
75543;BME280;64129;53.508;10.476;2023-04-08T10:38:14;102174.53;;;7.68;80.13
75543;BME280;64129;53.508;10.476;2023-04-08T10:40:42;102182.41;;;7.63;80.46
75543;BME280;64129;53.508;10.476;2023-04-08T10:43:10;102176.00;;;7.46;81.01
75543;BME280;64129;53.508;10.476;2023-04-08T10:45:37;102178.53;;;7.37;81.60
75543;BME280;64129;53.508;10.476;2023-04-08T10:50:37;102188.41;;;7.51;80.84
75543;BME280;64129;53.508;10.476;2023-04-08T10:53:03;102180.34;;;7.41;81.48
75543;BME280;64129;53.508;10.476;2023-04-08T10:55:30;102180.56;;;7.59;80.81
75543;BME280;64129;53.508;10.476;2023-04-08T10:58:08;102183.31;;;7.67;80.90
75543;BME280;64129;53.508;10.476;2023-04-08T11:00:36;102178.03;;;7.67;80.63
75543;BME280;64129;53.508;10.476;2023-04-08T11:03:09;102178.03;;;7.67;81.01
75543;BME280;64129;53.508;10.476;2023-04-08T11:05:37;102177.06;;;7.60;80.95
75543;BME280;64129;53.508;10.476;2023-04-08T11:08:04;102179.00;;;7.73;80.91
75543;BME280;64129;53.508;10.476;2023-04-08T11:10:36;102176.91;;;7.46;80.91
75543;BME280;64129;53.508;10.476;2023-04-08T11:13:07;102179.94;;;7.80;80.70
75543;BME280;64129;53.508;10.476;2023-04-08T11:15:36;102177.22;;;7.74;80.54
75543;BME280;64129;53.508;10.476;2023-04-08T11:18:05;102167.63;;;7.83;80.20
75543;BME280;64129;53.508;10.476;2023-04-08T11:20:32;102180.69;;;7.68;80.80
75543;BME280;64129;53.508;10.476;2023-04-08T11:23:01;102170.31;;;7.87;80.50
75543;BME280;64129;53.508;10.476;2023-04-08T11:25:29;102172.00;;;7.78;80.87
75543;BME280;64129;53.508;10.476;2023-04-08T11:27:56;102166.84;;;7.94;79.52
75543;BME280;64129;53.508;10.476;2023-04-08T11:30:23;102172.09;;;7.89;80.24
75543;BME280;64129;53.508;10.476;2023-04-08T11:32:50;102171.41;;;8.07;79.26
75543;BME280;64129;53.508;10.476;2023-04-08T11:35:17;102173.88;;;7.90;79.87
75543;BME280;64129;53.508;10.476;2023-04-08T11:37:44;102174.25;;;8.30;81.80
75543;BME280;64129;53.508;10.476;2023-04-08T11:40:19;102164.50;;;8.26;79.14
75543;BME280;64129;53.508;10.476;2023-04-08T11:42:46;102171.56;;;8.27;79.92
75543;BME280;64129;53.508;10.476;2023-04-08T11:45:14;102168.22;;;8.41;79.40
75543;BME280;64129;53.508;10.476;2023-04-08T11:47:42;102174.06;;;8.07;79.70
75543;BME280;64129;53.508;10.476;2023-04-08T11:50:10;102172.38;;;8.18;79.21
75543;BME280;64129;53.508;10.476;2023-04-08T11:52:45;102176.84;;;8.24;78.91
75543;BME280;64129;53.508;10.476;2023-04-08T11:55:27;102177.44;;;7.97;79.56
75543;BME280;64129;53.508;10.476;2023-04-08T11:58:04;102182.81;;;8.00;79.27
75543;BME280;64129;53.508;10.476;2023-04-08T12:00:32;102186.25;;;7.96;79.82
75543;BME280;64129;53.508;10.476;2023-04-08T12:02:58;102188.88;;;7.94;80.31
75543;BME280;64129;53.508;10.476;2023-04-08T12:05:25;102184.72;;;8.16;79.19
75543;BME280;64129;53.508;10.476;2023-04-08T12:07:51;102188.09;;;8.00;79.53
75543;BME280;64129;53.508;10.476;2023-04-08T12:10:18;102189.69;;;7.86;80.22
75543;BME280;64129;53.508;10.476;2023-04-08T12:12:45;102190.84;;;8.12;79.93
75543;BME280;64129;53.508;10.476;2023-04-08T12:15:12;102191.63;;;8.00;79.77
75543;BME280;64129;53.508;10.476;2023-04-08T12:17:38;102186.50;;;8.17;79.08
75543;BME280;64129;53.508;10.476;2023-04-08T12:20:05;102190.81;;;8.07;79.12
75543;BME280;64129;53.508;10.476;2023-04-08T12:22:32;102193.63;;;8.27;78.70
75543;BME280;64129;53.508;10.476;2023-04-08T12:24:59;102191.81;;;8.20;79.40
75543;BME280;64129;53.508;10.476;2023-04-08T12:27:30;102191.84;;;8.23;79.01
75543;BME280;64129;53.508;10.476;2023-04-08T12:29:59;102192.75;;;8.27;79.06
75543;BME280;64129;53.508;10.476;2023-04-08T12:32:26;102199.16;;;8.46;78.64
75543;BME280;64129;53.508;10.476;2023-04-08T12:34:55;102196.28;;;8.29;78.85
75543;BME280;64129;53.508;10.476;2023-04-08T12:37:22;102199.72;;;8.16;79.64
75543;BME280;64129;53.508;10.476;2023-04-08T12:39:49;102207.31;;;7.83;80.20
75543;BME280;64129;53.508;10.476;2023-04-08T12:42:16;102205.81;;;8.07;79.83
75543;BME280;64129;53.508;10.476;2023-04-08T12:44:42;102199.63;;;8.06;80.01
75543;BME280;64129;53.508;10.476;2023-04-08T12:47:09;102206.78;;;8.17;79.20
75543;BME280;64129;53.508;10.476;2023-04-08T12:49:36;102202.44;;;8.26;79.07
75543;BME280;64129;53.508;10.476;2023-04-08T12:52:11;102205.84;;;8.13;79.25
75543;BME280;64129;53.508;10.476;2023-04-08T12:54:38;102201.59;;;8.29;79.31
75543;BME280;64129;53.508;10.476;2023-04-08T12:57:05;102207.59;;;8.11;78.76
75543;BME280;64129;53.508;10.476;2023-04-08T12:59:31;102195.31;;;8.19;78.92
75543;BME280;64129;53.508;10.476;2023-04-08T13:01:59;102208.72;;;8.33;78.78
75543;BME280;64129;53.508;10.476;2023-04-08T13:04:25;102207.94;;;8.43;78.71
75543;BME280;64129;53.508;10.476;2023-04-08T13:06:52;102205.31;;;8.43;78.70
75543;BME280;64129;53.508;10.476;2023-04-08T13:09:19;102208.59;;;8.22;78.76
75543;BME280;64129;53.508;10.476;2023-04-08T13:11:45;102201.44;;;9.20;81.45